Time;durP1;ratioP1;P1;durP2;ratioP2;P2;SDS_P1;SDS_P2;PMS_P1;PMS_P2;Temp;Humidity;BMP_temperature;BMP_pressure;BME280_temperature;BME280_humidity;BME280_pressure;Samples;Min_cycle;Max_cycle;Signal;HPM_P1;HPM_P2
2022/03/24 00:02:02;;;;;;;6.15;1.70;;;18.90;99.90;;;;;;5064121;28;20044;-67
2022/03/24 00:04:30;;;;;;;9.18;1.88;;;18.90;99.90;;;;;;5049724;28;20040;-67
2022/03/24 00:06:57;;;;;;;11.80;1.70;;;19.00;99.90;;;;;;5043430;28;20029;-67
2022/03/24 00:09:24;;;;;;;8.38;1.90;;;19.00;99.90;;;;;;5054518;28;20033;-68
2022/03/24 00:11:51;;;;;;;9.10;2.53;;;19.00;99.90;;;;;;5047978;28;20047;-67
2022/03/24 00:14:19;;;;;;;12.73;2.13;;;19.00;99.90;;;;;;5044095;28;20028;-67
2022/03/24 00:16:47;;;;;;;9.27;2.53;;;19.10;99.90;;;;;;5053278;28;20028;-67
2022/03/24 00:19:16;;;;;;;10.63;2.20;;;19.10;99.90;;;;;;5052213;28;20052;-66
2022/03/24 00:21:44;;;;;;;6.82;1.67;;;19.10;99.90;;;;;;5039549;28;20052;-66
2022/03/24 00:24:12;;;;;;;11.27;1.58;;;19.10;99.90;;;;;;5046009;28;20039;-66
2022/03/24 00:26:39;;;;;;;13.80;2.72;;;19.00;99.90;;;;;;5050191;28;20032;-66
2022/03/24 00:29:08;;;;;;;10.38;2.47;;;19.10;99.90;;;;;;5053468;28;20017;-66
2022/03/24 00:31:35;;;;;;;13.48;2.53;;;19.20;99.90;;;;;;5050595;28;20033;-67
2022/03/24 00:34:03;;;;;;;9.43;2.15;;;19.20;99.90;;;;;;5047601;28;20082;-67
2022/03/24 00:36:30;;;;;;;8.48;2.45;;;19.20;99.90;;;;;;5048648;28;20394;-66
2022/03/24 00:38:57;;;;;;;14.05;2.88;;;19.20;99.90;;;;;;5042608;28;20025;-66
2022/03/24 00:41:25;;;;;;;8.75;1.80;;;19.20;99.90;;;;;;5058532;28;20044;-67
2022/03/24 00:43:52;;;;;;;13.35;2.20;;;19.20;99.90;;;;;;5055668;28;20029;-65
2022/03/24 00:46:23;;;;;;;11.60;3.20;;;19.20;99.90;;;;;;5064739;28;20033;-66
2022/03/24 00:48:51;;;;;;;11.60;3.17;;;19.30;99.90;;;;;;5049359;28;20056;-67
2022/03/24 00:51:19;;;;;;;15.75;2.70;;;19.20;99.90;;;;;;5059895;28;20104;-67
2022/03/24 00:53:47;;;;;;;13.70;2.92;;;19.20;99.90;;;;;;5057173;28;20021;-67
2022/03/24 00:56:15;;;;;;;8.73;2.42;;;19.30;99.90;;;;;;5049268;28;20079;-65
2022/03/24 00:58:42;;;;;;;11.40;3.65;;;19.20;99.90;;;;;;5052987;28;20029;-64
2022/03/24 01:01:12;;;;;;;9.48;1.58;;;19.10;99.90;;;;;;5049584;28;20029;-65
2022/03/24 01:03:43;;;;;;;15.00;3.22;;;19.10;99.90;;;;;;5041959;28;20067;-67
2022/03/24 01:06:16;;;;;;;9.25;2.28;;;19.00;99.90;;;;;;5054324;28;20044;-66
2022/03/24 01:08:44;;;;;;;11.70;2.50;;;19.00;99.90;;;;;;5048337;28;20032;-67
2022/03/24 01:11:14;;;;;;;8.55;1.98;;;19.10;99.90;;;;;;5041790;28;20390;-67
2022/03/24 01:13:41;;;;;;;8.48;2.00;;;19.20;99.90;;;;;;5036836;28;20097;-66
2022/03/24 01:16:09;;;;;;;12.57;2.38;;;19.30;99.90;;;;;;5048268;28;20094;-67
2022/03/24 01:18:37;;;;;;;9.27;1.88;;;19.30;99.90;;;;;;5050823;28;20053;-68
2022/03/24 01:21:07;;;;;;;11.65;3.05;;;19.20;99.90;;;;;;5048826;28;20029;-67
2022/03/24 01:23:35;;;;;;;12.75;2.47;;;19.20;99.90;;;;;;5039192;28;20116;-66
2022/03/24 01:26:05;;;;;;;10.95;2.35;;;19.30;99.90;;;;;;5051799;28;20031;-67
2022/03/24 01:28:34;;;;;;;12.85;2.75;;;19.20;99.90;;;;;;5047106;28;20029;-67
2022/03/24 01:31:01;;;;;;;7.93;1.90;;;19.30;99.90;;;;;;5054739;28;20075;-67
2022/03/24 01:33:29;;;;;;;12.38;2.90;;;19.20;99.90;;;;;;5044544;28;20052;-67
2022/03/24 01:35:56;;;;;;;11.27;2.58;;;19.20;99.90;;;;;;5052279;28;20025;-67
2022/03/24 01:38:23;;;;;;;11.30;3.00;;;19.10;99.90;;;;;;5047695;28;20017;-68
2022/03/24 01:40:51;;;;;;;8.77;2.30;;;19.10;99.90;;;;;;5047220;28;20025;-66
2022/03/24 01:43:19;;;;;;;8.35;2.53;;;19.10;99.90;;;;;;5047565;28;20068;-67
2022/03/24 01:45:47;;;;;;;13.18;2.38;;;19.10;99.90;;;;;;5052117;28;20032;-67
2022/03/24 01:48:15;;;;;;;10.60;2.85;;;19.20;99.90;;;;;;5055329;28;20025;-68
2022/03/24 01:50:43;;;;;;;12.57;2.47;;;19.20;99.90;;;;;;5051079;28;20075;-66
2022/03/24 01:53:12;;;;;;;15.85;3.45;;;19.10;99.90;;;;;;5052323;28;20516;-66
2022/03/24 01:55:41;;;;;;;12.48;1.90;;;19.10;99.90;;;;;;5052585;28;20396;-67
2022/03/24 01:58:08;;;;;;;10.88;2.10;;;19.00;99.90;;;;;;5057069;28;20033;-67
2022/03/24 02:00:36;;;;;;;12.48;2.30;;;19.10;99.90;;;;;;5053375;28;20029;-67
2022/03/24 02:03:06;;;;;;;14.73;3.17;;;19.10;99.90;;;;;;5051022;28;20385;-67
2022/03/24 02:05:35;;;;;;;12.65;3.33;;;19.10;99.90;;;;;;5053493;28;20370;-68
2022/03/24 02:08:03;;;;;;;10.45;2.55;;;19.20;99.90;;;;;;5036328;28;20091;-67
2022/03/24 02:10:35;;;;;;;9.70;2.70;;;19.20;99.90;;;;;;5044634;28;20045;-67
2022/03/24 02:13:05;;;;;;;7.55;2.00;;;19.30;99.90;;;;;;5054462;28;20033;-67
2022/03/24 02:15:33;;;;;;;5.68;2.00;;;19.40;99.90;;;;;;5060754;28;20429;-68
2022/03/24 02:18:01;;;;;;;10.75;2.72;;;19.40;99.90;;;;;;5051349;28;20040;-67
2022/03/24 02:20:33;;;;;;;13.02;2.55;;;19.40;99.90;;;;;;5041062;28;20047;-67
2022/03/24 02:23:01;;;;;;;10.38;2.90;;;19.40;99.90;;;;;;5052107;28;20033;-66
2022/03/24 02:25:32;;;;;;;10.20;2.75;;;19.40;99.90;;;;;;5053965;28;20451;-67
2022/03/24 02:28:02;;;;;;;12.80;3.28;;;19.30;99.90;;;;;;5040121;28;20021;-67
2022/03/24 02:30:30;;;;;;;11.98;3.13;;;19.40;99.90;;;;;;5043186;28;20028;-67
2022/03/24 02:32:58;;;;;;;16.67;3.53;;;19.30;99.90;;;;;;5040239;28;20481;-66
2022/03/24 02:35:25;;;;;;;10.82;3.13;;;19.40;99.90;;;;;;5050377;28;20036;-67
2022/03/24 02:37:52;;;;;;;12.50;2.65;;;19.40;99.90;;;;;;5048268;28;20039;-67
2022/03/24 02:40:20;;;;;;;10.20;3.13;;;19.30;99.90;;;;;;5054475;28;20465;-67
2022/03/24 02:42:47;;;;;;;15.55;3.58;;;19.30;99.90;;;;;;5046133;28;20037;-67
2022/03/24 02:45:15;;;;;;;16.65;3.15;;;19.20;99.90;;;;;;5042228;28;20025;-67
2022/03/24 02:47:44;;;;;;;13.40;2.97;;;19.20;99.90;;;;;;5052595;28;20040;-67
2022/03/24 02:50:11;;;;;;;14.80;3.45;;;19.20;99.90;;;;;;5045364;28;20037;-67
2022/03/24 02:52:39;;;;;;;11.68;2.80;;;19.20;99.90;;;;;;5043212;28;20057;-67
2022/03/24 02:55:10;;;;;;;12.93;3.28;;;19.20;99.90;;;;;;5058559;28;20032;-67
2022/03/24 02:57:38;;;;;;;10.82;2.22;;;19.20;99.90;;;;;;5052652;28;20559;-68
2022/03/24 03:00:07;;;;;;;15.95;3.22;;;19.30;99.90;;;;;;5051203;28;20028;-67
2022/03/24 03:02:35;;;;;;;15.65;4.55;;;19.20;99.90;;;;;;5044510;28;20091;-67
2022/03/24 03:05:03;;;;;;;9.73;2.83;;;19.10;99.90;;;;;;5053573;28;20031;-67
2022/03/24 03:07:30;;;;;;;12.88;3.22;;;19.10;99.90;;;;;;5045685;28;20040;-67
2022/03/24 03:09:57;;;;;;;6.85;2.97;;;19.10;99.90;;;;;;5036541;28;20109;-66
2022/03/24 03:12:27;;;;;;;10.20;2.17;;;19.10;99.90;;;;;;5044654;28;20017;-66
2022/03/24 03:14:56;;;;;;;8.77;2.90;;;19.10;99.90;;;;;;5055579;28;20111;-66
2022/03/24 03:17:23;;;;;;;11.18;2.92;;;19.20;99.90;;;;;;5045844;28;20021;-66
2022/03/24 03:19:51;;;;;;;12.35;2.88;;;19.20;99.90;;;;;;5050887;28;20024;-67
2022/03/24 03:22:18;;;;;;;13.63;2.55;;;19.20;99.90;;;;;;5052090;28;20045;-67
2022/03/24 03:24:45;;;;;;;9.48;2.83;;;19.20;99.90;;;;;;5047870;28;20389;-67
2022/03/24 03:27:13;;;;;;;12.18;2.25;;;19.30;99.90;;;;;;5052024;28;20017;-66
2022/03/24 03:29:42;;;;;;;10.05;2.10;;;19.30;99.90;;;;;;5050659;28;20048;-67
2022/03/24 03:32:10;;;;;;;12.52;2.63;;;19.20;99.90;;;;;;5046339;28;20017;-67
2022/03/24 03:34:38;;;;;;;9.85;2.25;;;19.30;99.90;;;;;;5046168;28;20034;-66
2022/03/24 03:37:06;;;;;;;9.50;2.00;;;19.30;99.90;;;;;;5059755;28;20024;-67
2022/03/24 03:39:34;;;;;;;12.55;3.35;;;19.40;99.90;;;;;;5054442;28;20112;-67
2022/03/24 03:42:01;;;;;;;8.82;2.92;;;19.40;99.90;;;;;;5049737;28;20029;-67
2022/03/24 03:44:29;;;;;;;12.32;2.05;;;19.40;99.90;;;;;;5050578;28;20099;-67
2022/03/24 03:46:57;;;;;;;13.50;2.65;;;19.40;99.90;;;;;;5050448;28;20059;-67
2022/03/24 03:49:24;;;;;;;12.57;2.47;;;19.40;99.90;;;;;;5048992;28;20060;-65
2022/03/24 03:51:52;;;;;;;11.52;2.58;;;19.50;99.90;;;;;;5045344;28;20488;-66
2022/03/24 03:54:20;;;;;;;11.80;2.22;;;19.70;99.90;;;;;;5051365;28;20496;-66
2022/03/24 03:56:48;;;;;;;14.32;2.45;;;19.80;99.90;;;;;;5038757;28;20493;-66
2022/03/24 03:59:15;;;;;;;14.45;2.20;;;19.90;99.90;;;;;;5046479;28;20026;-66
2022/03/24 04:01:43;;;;;;;9.55;1.67;;;20.10;99.90;;;;;;5053035;28;20082;-66
2022/03/24 04:04:12;;;;;;;15.05;3.22;;;20.10;99.90;;;;;;5047437;28;20033;-66
2022/03/24 04:06:41;;;;;;;9.48;2.22;;;20.10;99.90;;;;;;5049826;28;20028;-66
2022/03/24 04:09:09;;;;;;;9.23;1.95;;;20.10;99.90;;;;;;5046070;28;20029;-66
2022/03/24 04:11:36;;;;;;;8.27;1.50;;;20.00;99.90;;;;;;5046448;28;20112;-65
2022/03/24 04:14:04;;;;;;;10.57;1.70;;;20.10;99.90;;;;;;5050148;28;20031;-66
2022/03/24 04:16:32;;;;;;;7.43;1.42;;;20.10;99.90;;;;;;5048857;28;20519;-66
2022/03/24 04:18:59;;;;;;;9.68;2.30;;;20.00;99.90;;;;;;5054153;28;20032;-66
2022/03/24 04:21:27;;;;;;;10.77;2.10;;;19.90;99.90;;;;;;5048661;28;20127;-67
2022/03/24 04:23:54;;;;;;;11.80;2.13;;;19.90;99.90;;;;;;5048202;28;20055;-67
2022/03/24 04:26:22;;;;;;;9.15;2.08;;;20.10;99.90;;;;;;5049413;28;20022;-67
2022/03/24 04:28:49;;;;;;;17.65;2.10;;;20.20;99.90;;;;;;5051037;28;20392;-67
2022/03/24 04:31:16;;;;;;;9.65;1.50;;;20.00;99.90;;;;;;5050745;28;20041;-67
2022/03/24 04:33:44;;;;;;;13.70;2.13;;;20.00;99.90;;;;;;5051094;28;20044;-68
2022/03/24 04:36:11;;;;;;;12.07;1.83;;;20.00;99.90;;;;;;5044787;28;20025;-67
2022/03/24 04:38:39;;;;;;;7.85;1.25;;;20.00;99.90;;;;;;5051028;28;20033;-68
2022/03/24 04:41:07;;;;;;;8.88;1.83;;;20.10;99.90;;;;;;5044580;28;20033;-67
2022/03/24 04:43:35;;;;;;;9.35;2.03;;;20.10;99.90;;;;;;5047555;28;20104;-67
2022/03/24 04:46:03;;;;;;;7.35;1.75;;;20.10;99.90;;;;;;5044658;28;20036;-67
2022/03/24 04:48:35;;;;;;;10.63;1.50;;;20.30;99.90;;;;;;5039813;28;20041;-68
2022/03/24 04:51:05;;;;;;;6.63;1.35;;;20.30;99.90;;;;;;5044239;28;20033;-67
2022/03/24 04:53:33;;;;;;;9.15;1.60;;;20.30;99.90;;;;;;5048372;28;20389;-67
2022/03/24 04:56:00;;;;;;;7.43;1.02;;;20.40;99.90;;;;;;5044092;28;20491;-67
2022/03/24 04:58:28;;;;;;;8.02;1.40;;;20.40;99.90;;;;;;5048997;28;21129;-68
2022/03/24 05:00:55;;;;;;;7.88;1.38;;;20.50;99.90;;;;;;5040105;28;20051;-68
2022/03/24 05:03:22;;;;;;;9.93;1.70;;;20.50;99.90;;;;;;5041281;28;20025;-67
2022/03/24 05:05:49;;;;;;;8.95;1.35;;;20.50;99.90;;;;;;5037354;28;20400;-68
2022/03/24 05:08:17;;;;;;;9.68;2.47;;;20.60;99.90;;;;;;5039535;28;20478;-68
2022/03/24 05:10:44;;;;;;;8.40;1.92;;;20.50;99.90;;;;;;5043083;28;20389;-67
2022/03/24 05:13:11;;;;;;;7.65;1.40;;;20.60;99.90;;;;;;5047090;28;20028;-68
2022/03/24 05:15:41;;;;;;;7.65;1.40;;;20.70;99.90;;;;;;5041086;28;20112;-68
2022/03/24 05:18:08;;;;;;;10.73;2.42;;;20.80;99.90;;;;;;5046456;28;20021;-67
2022/03/24 05:20:36;;;;;;;7.82;1.52;;;20.80;99.90;;;;;;5043316;28;20116;-67
2022/03/24 05:23:03;;;;;;;7.25;1.73;;;20.80;99.90;;;;;;5046882;28;20036;-67
2022/03/24 05:25:30;;;;;;;7.75;1.75;;;20.80;99.90;;;;;;5046638;28;20082;-67
2022/03/24 05:27:58;;;;;;;11.48;1.67;;;20.90;99.90;;;;;;5041037;28;20554;-68
2022/03/24 05:30:26;;;;;;;7.20;1.83;;;20.80;99.90;;;;;;5047562;28;20032;-68
2022/03/24 05:32:53;;;;;;;6.63;1.60;;;20.80;99.90;;;;;;5045130;28;20032;-67
2022/03/24 05:35:21;;;;;;;9.70;1.55;;;20.80;99.90;;;;;;5047308;28;20025;-67
2022/03/24 05:37:49;;;;;;;11.38;1.77;;;20.80;99.90;;;;;;5049439;28;20017;-68
2022/03/24 05:40:16;;;;;;;7.30;1.63;;;20.70;99.90;;;;;;5047306;28;20029;-67
2022/03/24 05:42:43;;;;;;;6.78;1.40;;;20.70;99.90;;;;;;5045413;28;20362;-68
2022/03/24 05:45:11;;;;;;;8.15;1.20;;;20.70;99.90;;;;;;5046601;28;20033;-68
2022/03/24 05:47:38;;;;;;;8.07;1.27;;;20.70;99.90;;;;;;5045926;28;20477;-67
2022/03/24 05:50:06;;;;;;;9.95;1.05;;;20.70;99.90;;;;;;5053358;28;20049;-68
2022/03/24 05:52:33;;;;;;;17.30;1.80;;;20.70;99.90;;;;;;5055216;28;20116;-67
2022/03/24 05:55:00;;;;;;;8.43;1.35;;;20.60;99.90;;;;;;5045911;28;20144;-68
2022/03/24 05:57:27;;;;;;;8.20;1.45;;;20.60;99.90;;;;;;5045868;28;20034;-68
2022/03/24 05:59:55;;;;;;;13.98;1.70;;;20.60;99.90;;;;;;5045487;28;20025;-67
2022/03/24 06:02:22;;;;;;;11.48;1.40;;;20.60;99.90;;;;;;5045728;28;20104;-67
2022/03/24 06:04:50;;;;;;;6.70;2.00;;;20.50;99.90;;;;;;5044466;28;20025;-68
2022/03/24 06:07:18;;;;;;;10.55;2.08;;;20.60;99.90;;;;;;5047012;28;20036;-67
2022/03/24 06:09:46;;;;;;;12.30;1.90;;;20.60;99.90;;;;;;5049101;28;20025;-67
2022/03/24 06:12:15;;;;;;;8.80;2.13;;;20.60;99.90;;;;;;5051189;28;20021;-68
2022/03/24 06:14:43;;;;;;;9.80;1.77;;;20.60;99.90;;;;;;5048607;28;20033;-66
2022/03/24 06:17:10;;;;;;;11.05;1.70;;;20.60;99.90;;;;;;5043982;28;20047;-66
2022/03/24 06:19:39;;;;;;;6.45;1.27;;;20.60;99.90;;;;;;5043827;28;20375;-66
2022/03/24 06:22:07;;;;;;;10.57;1.42;;;20.60;99.90;;;;;;5053270;28;20017;-67
2022/03/24 06:24:35;;;;;;;10.95;1.80;;;20.50;99.90;;;;;;5045100;28;20452;-66
2022/03/24 06:27:02;;;;;;;7.47;1.65;;;20.40;99.90;;;;;;5043873;28;20495;-67
2022/03/24 06:29:29;;;;;;;8.38;1.38;;;20.50;99.90;;;;;;5054948;28;20071;-67
2022/03/24 06:31:57;;;;;;;7.82;1.80;;;20.50;99.90;;;;;;5040187;28;20021;-67
2022/03/24 06:34:25;;;;;;;9.77;1.83;;;20.50;99.90;;;;;;5044858;28;20436;-66
2022/03/24 06:36:54;;;;;;;9.32;1.40;;;20.40;99.90;;;;;;5043084;28;20021;-68
2022/03/24 06:39:22;;;;;;;7.97;1.58;;;20.50;99.90;;;;;;5048670;28;20039;-67
2022/03/24 06:41:49;;;;;;;5.40;1.20;;;20.50;99.90;;;;;;5051461;28;20028;-67
2022/03/24 06:44:18;;;;;;;8.85;1.58;;;20.50;99.90;;;;;;5050321;28;20068;-67
2022/03/24 06:46:45;;;;;;;9.00;1.30;;;20.50;99.90;;;;;;5049130;28;20378;-66
2022/03/24 06:49:15;;;;;;;9.18;1.40;;;20.50;99.90;;;;;;5048704;28;20596;-67
2022/03/24 06:51:42;;;;;;;8.10;1.00;;;20.50;99.90;;;;;;5048342;28;20456;-67
2022/03/24 06:54:11;;;;;;;8.55;1.75;;;20.50;99.90;;;;;;5043282;28;20029;-67
2022/03/24 06:56:38;;;;;;;14.18;1.83;;;20.50;99.90;;;;;;5054550;28;20026;-67
2022/03/24 06:59:06;;;;;;;10.10;2.53;;;20.50;99.90;;;;;;5045209;28;20021;-67
2022/03/24 07:01:33;;;;;;;8.70;1.25;;;20.40;99.90;;;;;;5042831;28;20021;-67
2022/03/24 07:04:00;;;;;;;12.13;1.38;;;20.50;99.90;;;;;;5040340;28;20057;-67
2022/03/24 07:06:28;;;;;;;13.75;1.95;;;20.50;99.90;;;;;;5044240;28;20106;-67
2022/03/24 07:08:55;;;;;;;8.75;1.42;;;20.50;99.90;;;;;;5048459;28;20380;-67
2022/03/24 07:11:22;;;;;;;6.95;1.40;;;20.50;99.90;;;;;;5048063;28;20083;-67
2022/03/24 07:13:49;;;;;;;7.07;1.13;;;20.50;99.90;;;;;;5051549;28;20029;-67
2022/03/24 07:16:17;;;;;;;4.75;1.17;;;20.50;99.90;;;;;;5043671;28;20029;-66
2022/03/24 07:18:44;;;;;;;11.48;1.60;;;20.50;99.90;;;;;;5048997;28;20059;-67
2022/03/24 07:21:13;;;;;;;6.28;1.50;;;20.50;99.90;;;;;;5041737;28;20017;-67
2022/03/24 07:23:41;;;;;;;6.30;1.40;;;20.50;99.90;;;;;;5045110;28;20061;-66
2022/03/24 07:26:09;;;;;;;11.82;2.63;;;20.40;99.90;;;;;;5043167;28;20021;-67
2022/03/24 07:28:37;;;;;;;8.57;2.28;;;20.50;99.90;;;;;;5047611;28;20033;-67
2022/03/24 07:31:17;;;;;;;10.68;1.95;;;20.40;99.90;;;;;;5043364;28;20036;-67
2022/03/24 07:33:45;;;;;;;7.57;1.98;;;20.30;99.90;;;;;;5044666;28;20025;-67
2022/03/24 07:36:13;;;;;;;8.52;1.48;;;20.30;99.90;;;;;;5044729;28;20040;-66
2022/03/24 07:38:40;;;;;;;8.68;1.48;;;20.30;99.90;;;;;;5049103;28;20064;-66
2022/03/24 07:41:09;;;;;;;5.70;1.20;;;20.10;99.90;;;;;;5040105;28;20037;-67
2022/03/24 07:43:36;;;;;;;5.47;0.85;;;20.00;99.90;;;;;;5043222;28;20029;-68
2022/03/24 07:46:04;;;;;;;4.40;0.90;;;19.90;99.90;;;;;;5057103;28;20098;-67
2022/03/24 07:48:31;;;;;;;2.58;0.90;;;19.80;99.90;;;;;;5044047;28;20056;-67
2022/03/24 07:51:03;;;;;;;5.43;0.90;;;19.80;99.90;;;;;;5055542;28;20021;-67
2022/03/24 07:53:39;;;;;;;6.95;1.05;;;19.60;99.90;;;;;;5042448;28;20971;-67
2022/03/24 07:56:08;;;;;;;4.95;1.20;;;19.50;99.90;;;;;;5042248;28;20500;-67
2022/03/24 07:58:36;;;;;;;5.35;1.00;;;19.50;99.90;;;;;;5046815;28;20503;-67
2022/03/24 08:01:03;;;;;;;5.68;1.40;;;19.50;99.90;;;;;;5044469;28;20026;-67
2022/03/24 08:03:31;;;;;;;7.03;0.95;;;19.50;99.90;;;;;;5047754;28;20084;-68
2022/03/24 08:05:58;;;;;;;7.88;1.45;;;19.50;99.90;;;;;;5039220;28;20090;-68
2022/03/24 08:08:26;;;;;;;6.63;1.55;;;19.40;99.90;;;;;;5039822;28;20038;-67
2022/03/24 08:10:54;;;;;;;7.57;1.65;;;19.40;99.90;;;;;;5044151;28;20108;-68
2022/03/24 08:13:23;;;;;;;8.90;1.35;;;19.40;99.90;;;;;;5044609;28;20385;-68
2022/03/24 08:15:52;;;;;;;11.27;2.10;;;19.30;99.90;;;;;;5048103;28;20036;-67
2022/03/24 08:18:20;;;;;;;5.47;1.50;;;19.30;99.90;;;;;;5045885;28;20025;-67
2022/03/24 08:20:48;;;;;;;6.78;2.03;;;19.30;99.90;;;;;;5047449;28;20032;-68
2022/03/24 08:23:16;;;;;;;7.43;2.58;;;19.30;99.90;;;;;;5049700;28;20160;-69
2022/03/24 08:25:45;;;;;;;8.68;2.40;;;19.20;99.90;;;;;;5038102;28;20025;-68
2022/03/24 08:28:13;;;;;;;9.05;2.80;;;19.20;99.90;;;;;;5048478;28;20068;-68
2022/03/24 08:30:45;;;;;;;4.25;1.45;;;19.20;99.90;;;;;;5046909;28;20025;-68
2022/03/24 08:36:25;;;;;;;5.25;1.40;;;18.90;99.90;;;;;;5047198;28;20117;-68
2022/03/24 08:38:53;;;;;;;7.03;1.90;;;18.70;99.90;;;;;;5051131;28;20477;-68
2022/03/24 08:41:21;;;;;;;4.43;1.48;;;18.70;99.90;;;;;;5056439;28;20051;-69
2022/03/24 08:43:48;;;;;;;7.32;1.48;;;18.70;99.90;;;;;;5068030;28;20446;-68
2022/03/24 08:46:16;;;;;;;7.28;1.88;;;18.60;99.90;;;;;;5048995;28;20036;-68
2022/03/24 08:48:44;;;;;;;6.95;2.33;;;18.70;99.90;;;;;;5044977;28;20049;-68
2022/03/24 08:51:11;;;;;;;10.57;2.65;;;18.60;99.90;;;;;;5041902;28;20472;-68
2022/03/24 08:53:39;;;;;;;5.80;2.55;;;18.60;99.90;;;;;;5049746;28;20128;-68
2022/03/24 08:56:07;;;;;;;9.10;2.38;;;18.60;99.90;;;;;;5051228;28;20025;-68
2022/03/24 08:58:35;;;;;;;8.43;3.10;;;18.70;99.90;;;;;;5046757;28;20032;-68
2022/03/24 09:01:03;;;;;;;7.07;1.98;;;18.60;99.90;;;;;;5042521;28;20373;-68
2022/03/24 09:03:31;;;;;;;7.38;2.05;;;18.50;99.90;;;;;;5051170;28;20033;-68
2022/03/24 09:05:58;;;;;;;8.75;2.08;;;18.40;99.90;;;;;;5051946;28;20021;-68
2022/03/24 09:08:26;;;;;;;5.07;1.30;;;18.30;99.90;;;;;;5050515;28;20017;-68
2022/03/24 09:10:53;;;;;;;8.05;2.00;;;18.30;99.90;;;;;;5051438;28;20020;-68
2022/03/24 09:13:21;;;;;;;8.18;1.60;;;18.20;99.90;;;;;;5052231;28;20202;-68
2022/03/24 09:15:48;;;;;;;7.88;1.58;;;18.20;99.90;;;;;;5044939;28;20039;-68
2022/03/24 09:18:16;;;;;;;6.88;1.80;;;18.20;99.90;;;;;;5056601;28;20600;-68
2022/03/24 09:20:43;;;;;;;6.07;1.73;;;18.20;99.90;;;;;;5059852;28;20029;-68
2022/03/24 09:23:12;;;;;;;4.97;1.77;;;18.20;99.90;;;;;;5055215;28;20122;-68
2022/03/24 09:25:40;;;;;;;6.72;2.35;;;18.20;99.90;;;;;;5055200;28;20031;-67
2022/03/24 09:28:08;;;;;;;7.40;2.22;;;18.30;99.90;;;;;;5067119;28;20033;-67
2022/03/24 09:30:37;;;;;;;6.72;2.53;;;18.30;99.90;;;;;;5045198;28;20063;-68
2022/03/24 09:33:05;;;;;;;4.28;1.70;;;18.30;99.90;;;;;;5052680;28;20033;-69
2022/03/24 09:35:34;;;;;;;5.95;1.63;;;18.30;99.90;;;;;;5043337;28;20037;-68
2022/03/24 09:38:02;;;;;;;7.60;2.03;;;18.40;99.90;;;;;;5049114;28;20373;-68
2022/03/24 09:40:30;;;;;;;6.65;1.77;;;18.40;99.90;;;;;;5049677;28;20492;-68
2022/03/24 09:43:00;;;;;;;6.25;1.55;;;18.40;99.90;;;;;;5049620;28;20033;-68
2022/03/24 09:45:28;;;;;;;5.65;1.67;;;18.40;99.90;;;;;;5050985;28;20485;-69
2022/03/24 09:47:56;;;;;;;5.93;1.95;;;18.40;99.90;;;;;;5048737;28;20116;-68
2022/03/24 09:50:27;;;;;;;4.47;1.58;;;18.50;99.90;;;;;;5047103;28;20210;-68
2022/03/24 09:52:59;;;;;;;5.22;1.30;;;18.50;99.90;;;;;;5051288;28;20132;-68
2022/03/24 09:55:30;;;;;;;8.23;1.77;;;18.50;99.90;;;;;;5046886;28;20026;-68
2022/03/24 09:58:00;;;;;;;5.00;1.42;;;18.50;99.90;;;;;;5052681;28;20051;-67
2022/03/24 10:00:27;;;;;;;6.43;1.23;;;18.50;99.90;;;;;;5052768;28;20027;-68
2022/03/24 10:03:09;;;;;;;5.25;2.17;;;18.50;99.90;;;;;;5045945;28;20029;-68
2022/03/24 10:05:37;;;;;;;5.60;1.77;;;18.50;99.90;;;;;;5051715;28;20021;-68
2022/03/24 10:08:06;;;;;;;5.07;1.30;;;18.50;99.90;;;;;;5052597;28;20063;-68
2022/03/24 10:10:36;;;;;;;3.30;1.25;;;18.60;99.90;;;;;;5046637;28;20033;-69
2022/03/24 10:13:04;;;;;;;3.50;1.17;;;18.60;99.90;;;;;;5047896;28;20075;-68
2022/03/24 10:15:32;;;;;;;6.82;1.90;;;18.50;99.90;;;;;;5046239;28;20120;-69
2022/03/24 10:18:00;;;;;;;8.13;1.17;;;18.40;99.90;;;;;;5050543;28;20561;-68
2022/03/24 10:20:33;;;;;;;9.48;2.47;;;18.30;99.90;;;;;;5048743;28;20028;-68
2022/03/24 10:23:03;;;;;;;6.15;1.70;;;18.30;99.90;;;;;;5047907;28;20042;-67
2022/03/24 10:25:35;;;;;;;8.13;1.98;;;18.20;99.90;;;;;;5044563;28;20550;-68
2022/03/24 10:28:21;;;;;;;8.93;2.15;;;18.20;99.90;;;;;;5052045;28;20173;-68
2022/03/24 10:30:53;;;;;;;5.65;1.30;;;18.20;99.90;;;;;;5046526;28;20049;-68
2022/03/24 10:33:35;;;;;;;5.85;1.92;;;18.20;99.90;;;;;;5046564;28;20025;-69
2022/03/24 10:36:12;;;;;;;9.20;1.80;;;18.20;99.90;;;;;;5044606;28;20079;-68
2022/03/24 10:38:43;;;;;;;7.75;2.65;;;18.20;99.90;;;;;;5047266;28;20025;-68
2022/03/24 10:41:19;;;;;;;4.30;1.63;;;18.30;99.90;;;;;;5050826;28;20413;-68
2022/03/24 10:43:49;;;;;;;10.32;2.60;;;18.30;99.90;;;;;;5053482;28;20072;-68
2022/03/24 10:46:22;;;;;;;7.35;1.80;;;18.20;99.90;;;;;;5051436;28;20112;-67
2022/03/24 10:48:52;;;;;;;8.40;1.73;;;18.30;99.90;;;;;;5043829;28;20045;-68
2022/03/24 10:51:31;;;;;;;10.30;2.05;;;18.30;99.90;;;;;;5049675;28;20036;-67
2022/03/24 10:54:22;;;;;;;10.27;1.77;;;18.30;99.90;;;;;;5043420;28;20102;-68
2022/03/24 10:57:13;;;;;;;9.30;1.88;;;18.30;99.90;;;;;;5045004;28;20056;-68
2022/03/24 10:59:47;;;;;;;8.30;2.40;;;18.30;99.90;;;;;;5052425;28;20036;-67
2022/03/24 11:02:16;;;;;;;9.73;2.78;;;18.30;99.90;;;;;;5046814;28;20025;-68
2022/03/24 11:04:45;;;;;;;10.30;2.50;;;18.30;99.90;;;;;;5044867;28;20025;-68
2022/03/24 11:07:13;;;;;;;9.35;2.83;;;18.30;99.90;;;;;;5048527;28;20025;-68
2022/03/24 11:09:40;;;;;;;9.07;2.78;;;18.30;99.90;;;;;;5045764;28;20021;-67
2022/03/24 11:12:26;;;;;;;7.95;3.20;;;18.40;99.90;;;;;;5043207;28;20021;-68
2022/03/24 11:15:02;;;;;;;7.20;3.03;;;18.40;99.90;;;;;;5048986;28;20025;-67
2022/03/24 11:17:35;;;;;;;9.20;2.88;;;18.40;99.90;;;;;;5050656;28;20060;-68
2022/03/24 11:20:05;;;;;;;6.75;2.60;;;18.40;99.90;;;;;;5053324;28;20354;-67
2022/03/24 11:22:58;;;;;;;5.93;2.08;;;18.50;99.90;;;;;;5048728;28;20055;-68
2022/03/24 11:25:28;;;;;;;3.40;1.20;;;18.50;99.90;;;;;;5050879;28;20079;-68
2022/03/24 11:27:57;;;;;;;6.40;1.65;;;18.40;99.90;;;;;;5046641;28;20021;-68
2022/03/24 11:30:25;;;;;;;6.15;1.30;;;18.40;99.90;;;;;;5062628;28;20033;-67
2022/03/24 11:32:54;;;;;;;5.70;1.10;;;18.50;99.90;;;;;;5049909;28;20111;-67
2022/03/24 11:35:23;;;;;;;7.13;1.40;;;18.40;99.90;;;;;;5048532;28;20032;-67
2022/03/24 11:37:50;;;;;;;5.28;1.40;;;18.50;99.90;;;;;;5052844;28;20032;-68
2022/03/24 11:40:24;;;;;;;4.20;1.80;;;18.50;99.90;;;;;;5053094;28;20104;-68
2022/03/24 11:43:16;;;;;;;3.45;1.33;;;18.50;99.90;;;;;;5043415;28;20044;-68
2022/03/24 11:46:07;;;;;;;7.22;1.85;;;18.40;99.90;;;;;;5043880;28;20120;-68
2022/03/24 11:48:40;;;;;;;6.75;1.23;;;18.50;99.90;;;;;;5045750;28;20060;-67
2022/03/24 11:51:27;;;;;;;4.80;0.90;;;18.50;99.90;;;;;;5051537;28;20039;-68
2022/03/24 11:54:06;;;;;;;4.18;1.63;;;18.50;99.90;;;;;;5049992;28;20033;-67
2022/03/24 11:56:34;;;;;;;4.20;1.77;;;18.40;99.90;;;;;;5041078;28;20030;-68
2022/03/24 11:59:18;;;;;;;2.45;1.30;;;18.40;99.90;;;;;;5047424;28;20028;-67
2022/03/24 12:01:45;;;;;;;6.05;1.75;;;18.40;99.90;;;;;;5047946;28;20048;-67
2022/03/24 12:04:14;;;;;;;4.75;1.10;;;18.40;99.90;;;;;;5054613;28;20035;-67
2022/03/24 12:06:48;;;;;;;5.43;1.42;;;18.50;99.90;;;;;;5048105;28;20032;-67
2022/03/24 12:09:25;;;;;;;3.85;0.95;;;18.40;99.90;;;;;;5046052;28;20481;-67
2022/03/24 12:12:02;;;;;;;3.63;0.90;;;18.40;99.90;;;;;;5050505;28;20055;-68
2022/03/24 12:14:33;;;;;;;5.97;1.65;;;18.50;99.90;;;;;;5044544;28;20060;-67
2022/03/24 12:17:16;;;;;;;4.15;0.90;;;18.50;99.90;;;;;;5044010;28;20041;-67
2022/03/24 12:19:52;;;;;;;3.33;0.73;;;18.50;99.90;;;;;;5049158;28;20066;-67
2022/03/24 12:22:32;;;;;;;2.08;1.10;;;18.50;99.90;;;;;;5052061;28;20032;-68
2022/03/24 12:25:00;;;;;;;3.90;1.25;;;18.50;99.90;;;;;;5048483;28;20104;-68
2022/03/24 12:27:33;;;;;;;4.60;1.05;;;18.50;99.90;;;;;;5045288;28;20040;-67
2022/03/24 12:30:16;;;;;;;4.20;1.13;;;18.50;99.90;;;;;;5049515;28;20472;-68
2022/03/24 12:32:44;;;;;;;3.65;0.85;;;18.50;99.90;;;;;;5047528;28;20058;-67
2022/03/24 12:35:42;;;;;;;2.85;0.90;;;18.50;99.90;;;;;;5036803;28;20405;-67
2022/03/24 12:38:32;;;;;;;4.30;1.08;;;18.50;99.90;;;;;;5042161;28;20025;-68
2022/03/24 12:41:06;;;;;;;3.33;1.48;;;18.50;99.90;;;;;;5040447;28;20405;-67
2022/03/24 12:43:51;;;;;;;4.82;1.17;;;18.50;99.90;;;;;;5045386;28;20032;-68
2022/03/24 12:46:25;;;;;;;4.95;1.10;;;18.50;99.90;;;;;;5039804;28;20498;-67
2022/03/24 12:48:54;;;;;;;5.18;1.30;;;18.50;99.90;;;;;;5034052;28;20049;-67
2022/03/24 12:51:27;;;;;;;4.18;1.13;;;18.50;99.90;;;;;;5033146;28;20040;-67
2022/03/24 12:53:58;;;;;;;2.50;1.40;;;18.50;99.90;;;;;;5059945;28;20021;-68
2022/03/24 12:56:32;;;;;;;4.07;1.23;;;18.50;99.90;;;;;;5038368;28;20026;-67
2022/03/24 12:59:06;;;;;;;4.50;1.38;;;18.50;99.90;;;;;;5041504;28;20377;-67